Time;durP1;ratioP1;P1;durP2;ratioP2;P2;SDS_P1;SDS_P2;PMS_P1;PMS_P2;Temp;Humidity;BMP_temperature;BMP_pressure;BME280_temperature;BME280_humidity;BME280_pressure;Samples;Min_cycle;Max_cycle;Signal;HPM_P1;HPM_P2
2023/09/26 00:01:22;;;;;;;2.00;1.40;;;;;;;11.84;100.00;98514.97;1212581;83;3922234;-77
2023/09/26 00:03:54;;;;;;;2.05;1.15;;;;;;;11.82;100.00;98516.63;1220917;75;3074046;-76
2023/09/26 00:06:29;;;;;;;1.45;1.20;;;;;;;11.67;100.00;98503.59;1223227;75;3040999;-76
2023/09/26 00:09:02;;;;;;;1.70;1.30;;;;;;;11.72;100.00;98502.19;1223882;75;2996586;-75
2023/09/26 00:11:35;;;;;;;1.50;1.40;;;;;;;11.61;100.00;98510.16;1224548;75;2954958;-77
2023/09/26 00:14:10;;;;;;;1.40;1.00;;;;;;;11.65;100.00;98500.53;1223322;75;3071781;-75
2023/09/26 00:16:43;;;;;;;1.50;1.25;;;;;;;11.62;100.00;98506.97;1226319;75;3002562;-76
2023/09/26 00:19:16;;;;;;;1.60;1.20;;;;;;;11.64;100.00;98510.00;1228158;75;2924207;-76
2023/09/26 00:21:49;;;;;;;1.35;1.25;;;;;;;11.65;100.00;98500.53;1218473;75;3096438;-77
2023/09/26 00:24:22;;;;;;;1.20;1.10;;;;;;;11.51;100.00;98507.44;1226293;75;2929362;-74
2023/09/26 00:26:55;;;;;;;1.50;1.10;;;;;;;11.66;100.00;98509.53;1224931;75;3019242;-77
2023/09/26 00:29:31;;;;;;;1.85;1.60;;;;;;;11.55;100.00;98496.31;1140567;75;10047416;-77
2023/09/26 00:32:04;;;;;;;1.55;1.20;;;;;;;11.52;100.00;98511.72;1223330;75;3080869;-76
2023/09/26 00:34:37;;;;;;;1.70;1.40;;;;;;;11.56;100.00;98508.03;1224591;75;3045057;-76
2023/09/26 00:37:09;;;;;;;1.60;1.10;;;;;;;11.57;100.00;98498.56;1221671;75;3027659;-75
2023/09/26 00:39:42;;;;;;;3.50;1.10;;;;;;;11.60;100.00;98500.41;1195416;75;4867860;-75
2023/09/26 00:42:15;;;;;;;1.80;1.20;;;;;;;11.55;100.00;98495.56;1206448;75;3815285;-80
2023/09/26 00:44:51;;;;;;;2.25;1.50;;;;;;;11.42;100.00;98498.47;1184406;75;4969725;-73
2023/09/26 00:47:23;;;;;;;;;;;;;;;11.43;100.00;98500.00;1224456;75;3072857;-75
2023/09/26 00:49:57;;;;;;;1.45;1.35;;;;;;;11.38;100.00;98492.41;1212818;75;3949650;-77
2023/09/26 00:52:29;;;;;;;2.40;1.55;;;;;;;11.35;100.00;98490.56;1216773;75;3085426;-75
2023/09/26 00:55:04;;;;;;;2.55;1.90;;;;;;;11.23;100.00;98484.03;1222287;75;2985090;-75
2023/09/26 00:57:38;;;;;;;2.40;1.70;;;;;;;11.26;100.00;98485.88;1224889;75;2974525;-78
2023/09/26 01:00:16;;;;;;;3.10;2.10;;;;;;;11.11;100.00;98482.22;1210277;75;3951297;-76
2023/09/26 01:02:49;;;;;;;2.35;1.65;;;;;;;11.20;100.00;98482.97;1226713;75;2933219;-77
2023/09/26 01:05:22;;;;;;;1.35;1.20;;;;;;;11.32;100.00;98484.03;1225419;75;2914502;-77
2023/09/26 01:07:54;;;;;;;2.35;1.55;;;;;;;11.13;100.00;98485.28;1224182;75;2992107;-77
2023/09/26 01:10:27;;;;;;;2.35;1.55;;;;;;;11.05;100.00;98488.31;1226359;75;2933445;-73
2023/09/26 01:13:00;;;;;;;1.95;1.45;;;;;;;11.16;100.00;98482.41;1225989;75;2924726;-77
2023/09/26 01:15:42;;;;;;;2.40;1.60;;;;;;;11.05;100.00;98484.84;1222477;75;3065941;-76
2023/09/26 01:18:23;;;;;;;1.70;1.30;;;;;;;11.25;100.00;98484.34;1222249;75;3090040;-76
2023/09/26 01:20:55;;;;;;;2.00;1.55;;;;;;;11.17;100.00;98483.16;1226514;75;2920007;-75
2023/09/26 01:23:32;;;;;;;6.60;1.50;;;;;;;11.18;100.00;98474.44;1226974;75;2909422;-80
2023/09/26 01:26:08;;;;;;;1.70;1.40;;;;;;;11.05;100.00;98471.13;1226628;75;2922872;-77
2023/09/26 01:28:40;;;;;;;1.75;1.60;;;;;;;11.13;100.00;98471.56;1221410;75;3018520;-73
2023/09/26 01:31:14;;;;;;;1.30;1.20;;;;;;;11.09;100.00;98475.25;1218781;75;3098942;-76
2023/09/26 01:33:47;;;;;;;1.85;1.60;;;;;;;11.15;100.00;98471.88;1225657;75;2922466;-76
2023/09/26 01:36:21;;;;;;;1.10;1.00;;;;;;;11.19;100.00;98470.50;1224803;75;2924706;-78
2023/09/26 01:38:54;;;;;;;1.25;1.15;;;;;;;11.01;100.00;98476.00;1197947;75;4861834;-76
2023/09/26 01:41:30;;;;;;;0.95;0.95;;;;;;;11.03;100.00;98477.06;1206940;75;4075138;-77
2023/09/26 01:44:03;;;;;;;3.60;1.20;;;;;;;11.15;100.00;98475.38;1222648;75;2938598;-75
2023/09/26 01:46:36;;;;;;;0.70;0.70;;;;;;;11.12;100.00;98475.53;1212326;75;3891045;-76
2023/09/26 01:49:09;;;;;;;0.90;0.80;;;;;;;11.19;100.00;98475.22;1219352;75;3103550;-78
2023/09/26 01:51:42;;;;;;;1.30;0.90;;;;;;;11.12;100.00;98470.06;1221858;75;3072029;-72
2023/09/26 01:54:14;;;;;;;1.30;1.20;;;;;;;11.07;100.00;98474.19;1217109;75;3063519;-77
2023/09/26 01:56:50;;;;;;;1.50;1.00;;;;;;;11.07;100.00;98480.41;1221353;75;3061474;-74
2023/09/26 01:59:22;;;;;;;0.95;0.90;;;;;;;11.17;100.00;98477.66;1224533;75;2929591;-77
2023/09/26 02:01:55;;;;;;;1.60;1.25;;;;;;;10.96;100.00;98485.59;1224209;75;3005987;-80
2023/09/26 02:04:27;;;;;;;1.40;1.30;;;;;;;11.01;100.00;98476.75;1222232;75;2995048;-79
2023/09/26 02:07:00;;;;;;;1.45;1.15;;;;;;;11.05;100.00;98474.63;1226357;75;2920182;-76
2023/09/26 02:09:33;;;;;;;1.20;1.10;;;;;;;11.13;100.00;98472.31;1224303;75;2943163;-76
2023/09/26 02:12:08;;;;;;;1.35;1.00;;;;;;;11.05;100.00;98466.41;1226607;75;2927162;-74
2023/09/26 02:14:41;;;;;;;0.90;0.90;;;;;;;11.12;100.00;98462.59;1224460;75;2970087;-75
2023/09/26 02:17:14;;;;;;;1.25;0.90;;;;;;;11.15;100.00;98464.41;1223416;75;3071224;-76
2023/09/26 02:19:47;;;;;;;1.20;1.10;;;;;;;11.08;100.00;98464.72;1225840;75;2924358;-77
2023/09/26 02:22:19;;;;;;;1.40;1.30;;;;;;;11.01;100.00;98468.53;1226620;75;2910643;-75
2023/09/26 02:24:56;;;;;;;2.50;1.70;;;;;;;10.92;100.00;98471.31;1226792;75;2926496;-77
2023/09/26 02:27:32;;;;;;;2.75;1.70;;;;;;;10.89;100.00;98469.47;1225392;75;2949561;-76
2023/09/26 02:30:05;;;;;;;1.50;1.40;;;;;;;10.96;100.00;98476.63;1224084;75;2960207;-77
2023/09/26 02:32:39;;;;;;;2.60;1.60;;;;;;;10.93;100.00;98469.31;1222305;75;2994890;-75
2023/09/26 02:35:15;;;;;;;3.00;1.90;;;;;;;10.93;100.00;98474.81;1220102;67;3080211;-73
2023/09/26 02:37:48;;;;;;;2.10;1.60;;;;;;;10.91;100.00;98475.25;1221588;75;3057206;-75
2023/09/26 02:40:21;;;;;;;2.70;2.00;;;;;;;10.94;100.00;98479.81;1211589;75;3935138;-75
2023/09/26 02:42:56;;;;;;;1.50;1.40;;;;;;;10.99;100.00;98479.22;1225552;75;2912341;-80
2023/09/26 02:45:30;;;;;;;2.50;1.80;;;;;;;10.92;100.00;98476.78;1185438;75;5650583;-75
2023/09/26 02:48:03;;;;;;;2.75;2.20;;;;;;;10.84;100.00;98476.31;1222922;75;3023078;-75
2023/09/26 02:50:36;;;;;;;2.70;2.00;;;;;;;10.82;100.00;98480.72;1223282;75;2926405;-75
2023/09/26 02:53:09;;;;;;;3.45;2.05;;;;;;;10.88;100.00;98484.38;1225637;75;2928917;-77
2023/09/26 02:55:43;;;;;;;2.15;1.95;;;;;;;10.80;100.00;98477.69;1226289;75;2914433;-73
2023/09/26 02:58:18;;;;;;;3.15;1.85;;;;;;;10.86;100.00;98482.09;1225513;75;2921436;-74
2023/09/26 03:00:52;;;;;;;1.95;1.60;;;;;;;10.93;100.00;98480.28;1223520;75;3070679;-76
2023/09/26 03:03:24;;;;;;;1.25;1.15;;;;;;;10.83;100.00;98474.03;1225052;75;2918780;-77
2023/09/26 03:05:57;;;;;;;1.70;1.40;;;;;;;10.79;100.00;98481.66;1221611;75;2991789;-77
2023/09/26 03:08:30;;;;;;;2.95;1.70;;;;;;;10.68;100.00;98473.13;1225586;75;2922554;-77
2023/09/26 03:11:03;;;;;;;1.40;1.30;;;;;;;10.83;100.00;98483.03;1223037;75;3012964;-74
2023/09/26 03:13:38;;;;;;;1.30;1.10;;;;;;;10.84;100.00;98481.78;1226409;75;2907638;-74
2023/09/26 03:16:13;;;;;;;1.25;1.15;;;;;;;10.81;100.00;98479.22;1224690;75;2918912;-75
2023/09/26 03:18:46;;;;;;;1.30;1.20;;;;;;;10.61;100.00;98480.44;1222600;75;3066470;-75
2023/09/26 03:21:19;;;;;;;2.15;1.70;;;;;;;10.59;100.00;98487.59;1224432;75;2933643;-75
2023/09/26 03:23:52;;;;;;;1.60;1.35;;;;;;;10.68;100.00;98489.56;1223737;75;2920672;-77
2023/09/26 03:26:24;;;;;;;1.60;1.50;;;;;;;10.60;100.00;98484.38;1222574;75;2958216;-77
2023/09/26 03:29:00;;;;;;;1.90;1.75;;;;;;;10.35;100.00;98492.88;1218366;75;3091342;-79
2023/09/26 03:31:34;;;;;;;4.90;2.70;;;;;;;10.11;100.00;98487.16;1210377;75;3813455;-76
2023/09/26 03:34:06;;;;;;;4.70;2.80;;;;;;;10.17;100.00;98494.34;1220566;75;3030628;-79
2023/09/26 03:36:39;;;;;;;2.80;2.50;;;;;;;10.40;100.00;98484.81;1223059;75;2931317;-72
2023/09/26 03:39:12;;;;;;;4.00;2.55;;;;;;;10.29;100.00;98492.69;1223589;75;2921300;-79
2023/09/26 03:41:45;;;;;;;3.20;2.70;;;;;;;10.12;100.00;98486.69;1224330;75;2925925;-76
2023/09/26 03:44:21;;;;;;;4.20;2.40;;;;;;;10.11;100.00;98495.38;1183073;75;5779310;-81
2023/09/26 03:46:53;;;;;;;2.20;1.90;;;;;;;10.35;100.00;98501.09;1223170;75;2924548;-80
2023/09/26 03:49:26;;;;;;;1.70;1.50;;;;;;;10.57;100.00;98498.22;1223756;75;2889697;-78
2023/09/26 03:51:59;;;;;;;1.65;1.20;;;;;;;10.60;100.00;98495.31;1223650;75;2919799;-76
2023/09/26 03:54:33;;;;;;;1.20;1.10;;;;;;;10.74;100.00;98493.22;1223900;75;2939705;-73
2023/09/26 03:57:06;;;;;;;1.00;0.90;;;;;;;10.71;100.00;98497.63;1217685;75;3070575;-75
2023/09/26 03:59:42;;;;;;;1.45;1.05;;;;;;;10.68;100.00;98490.34;1224078;75;2917008;-78
2023/09/26 04:02:14;;;;;;;1.20;1.10;;;;;;;10.61;100.00;98485.91;1221008;75;2956951;-78
2023/09/26 04:04:47;;;;;;;1.50;1.30;;;;;;;10.69;100.00;98494.59;1223993;75;2919152;-76
2023/09/26 04:07:20;;;;;;;1.40;1.30;;;;;;;10.61;100.00;98491.38;1224700;75;2922869;-74
2023/09/26 04:09:53;;;;;;;1.70;1.10;;;;;;;10.61;100.00;98496.88;1220457;75;3107695;-77
2023/09/26 04:12:25;;;;;;;1.55;1.35;;;;;;;10.74;100.00;98496.72;1223908;75;2921380;-78
2023/09/26 04:15:01;;;;;;;1.70;1.40;;;;;;;10.74;100.00;98499.44;1222857;75;2932896;-77
2023/09/26 04:17:33;;;;;;;1.55;1.20;;;;;;;10.75;100.00;98503.72;1224245;75;2925743;-76
2023/09/26 04:20:16;;;;;;;1.30;1.20;;;;;;;10.71;100.00;98497.63;1223595;75;2926998;-82
2023/09/26 04:22:49;;;;;;;1.10;1.00;;;;;;;10.76;100.00;98497.03;1224609;75;2936566;-79
2023/09/26 04:25:25;;;;;;;1.10;1.00;;;;;;;10.81;100.00;98501.13;1220333;75;2991939;-77
2023/09/26 04:27:58;;;;;;;1.30;1.10;;;;;;;10.83;100.00;98498.69;1208600;75;3953473;-77
2023/09/26 04:30:33;;;;;;;1.20;1.10;;;;;;;10.85;100.00;98499.00;1219439;75;2973612;-79
2023/09/26 04:33:06;;;;;;;;;;;;;;;10.84;100.00;98494.72;1218982;75;3114559;-78
2023/09/26 04:35:39;;;;;;;3.35;2.15;;;;;;;10.88;100.00;98492.59;1219489;75;3104984;-74
2023/09/26 04:38:14;;;;;;;2.40;2.00;;;;;;;10.91;100.00;98488.94;1206359;75;3989196;-74
2023/09/26 04:40:47;;;;;;;3.00;2.00;;;;;;;10.79;100.00;98484.38;1217360;75;3119880;-76
2023/09/26 04:43:19;;;;;;;6.70;3.10;;;;;;;10.70;100.00;98485.13;1212501;75;3795591;-75
2023/09/26 04:45:54;;;;;;;3.70;3.15;;;;;;;10.78;100.00;98489.09;1222201;75;2924500;-72
2023/09/26 04:48:27;;;;;;;4.85;3.90;;;;;;;10.96;100.00;98480.09;1223471;75;2928499;-71
2023/09/26 04:51:00;;;;;;;8.15;6.40;;;;;;;10.79;100.00;98481.66;1221228;75;3001746;-76
2023/09/26 04:53:32;;;;;;;13.25;11.00;;;;;;;10.93;100.00;98481.03;1220139;75;3092767;-78
2023/09/26 04:56:06;;;;;;;10.50;7.80;;;;;;;10.82;100.00;98472.50;1223563;75;2934686;-75
2023/09/26 04:58:39;;;;;;;6.85;5.80;;;;;;;10.85;100.00;98474.34;1224087;75;2932626;-80
2023/09/26 05:01:24;;;;;;;5.65;4.55;;;;;;;10.88;100.00;98476.16;1224194;75;2930528;-72
2023/09/26 05:03:57;;;;;;;6.35;4.15;;;;;;;10.56;100.00;98472.81;1222797;75;2996056;-77
2023/09/26 05:06:30;;;;;;;5.80;3.25;;;;;;;10.38;100.00;98489.22;1223847;75;2917623;-75
2023/09/26 05:09:02;;;;;;;3.80;2.90;;;;;;;10.49;100.00;98483.31;1223338;75;2927871;-74
2023/09/26 05:11:35;;;;;;;4.10;2.90;;;;;;;10.53;100.00;98481.94;1220496;75;3085839;-74
2023/09/26 05:14:08;;;;;;;3.35;2.65;;;;;;;10.61;100.00;98488.66;1221519;75;2961682;-74
2023/09/26 05:16:43;;;;;;;3.20;2.50;;;;;;;10.82;100.00;98492.47;1223695;83;2922860;-75
2023/09/26 05:19:16;;;;;;;3.10;1.95;;;;;;;10.91;100.00;98491.69;1222670;75;2926486;-73
2023/09/26 05:21:49;;;;;;;2.20;1.95;;;;;;;10.93;100.00;98496.72;1218336;75;3106779;-75
2023/09/26 05:24:22;;;;;;;2.10;1.90;;;;;;;10.99;100.00;98489.38;1223609;75;2938292;-73
2023/09/26 05:26:54;;;;;;;2.10;1.90;;;;;;;11.04;100.00;98483.28;1223905;75;2927082;-75
2023/09/26 05:29:27;;;;;;;3.20;2.05;;;;;;;11.12;100.00;98492.75;1210466;75;3909546;-74
2023/09/26 05:32:02;;;;;;;1.75;1.60;;;;;;;11.24;100.00;98488.31;1223245;75;2937104;-72
2023/09/26 05:34:35;;;;;;;1.30;1.20;;;;;;;11.33;100.00;98490.25;1223572;75;2929719;-76
2023/09/26 05:37:09;;;;;;;2.30;1.80;;;;;;;11.27;100.00;98481.91;1207812;75;4015834;-75
2023/09/26 05:39:42;;;;;;;3.95;2.00;;;;;;;11.31;100.00;98485.25;1223387;75;2936159;-73
2023/09/26 05:42:15;;;;;;;3.10;2.70;;;;;;;11.36;100.00;98492.84;1221545;75;3032460;-76
2023/09/26 05:44:47;;;;;;;3.45;2.90;;;;;;;11.46;100.00;98488.84;1216146;75;3129759;-73
2023/09/26 05:47:23;;;;;;;8.75;7.10;;;;;;;11.50;100.00;98483.97;1221898;75;2984990;-75
2023/09/26 05:49:56;;;;;;;5.35;4.55;;;;;;;11.48;100.00;98500.13;1220917;75;3074060;-73
2023/09/26 05:52:28;;;;;;;5.55;4.05;;;;;;;11.51;100.00;98499.19;1223978;75;2923654;-76
2023/09/26 05:55:01;;;;;;;3.90;3.10;;;;;;;11.66;100.00;98493.06;1223251;75;2911403;-72
2023/09/26 05:57:34;;;;;;;3.75;3.00;;;;;;;11.72;100.00;98502.94;1223138;75;2924018;-73
2023/09/26 06:00:12;;;;;;;2.90;2.50;;;;;;;11.76;100.00;98508.28;1224247;75;2921166;-72
2023/09/26 06:02:48;;;;;;;3.60;2.80;;;;;;;11.81;100.00;98502.16;1224286;75;2929500;-78
2023/09/26 06:05:21;;;;;;;3.10;2.60;;;;;;;11.99;100.00;98511.56;1219943;75;3038275;-74
2023/09/26 06:07:53;;;;;;;3.15;2.55;;;;;;;12.12;100.00;98514.84;1223468;75;2924118;-76
2023/09/26 06:10:26;;;;;;;2.65;2.20;;;;;;;12.56;100.00;98506.81;1223123;75;2946589;-75
2023/09/26 06:12:59;;;;;;;2.45;1.85;;;;;;;12.70;100.00;98505.38;1223808;75;2922245;-77
2023/09/26 06:15:33;;;;;;;5.00;2.70;;;;;;;12.74;100.00;98508.66;1214330;75;2956758;-70
2023/09/26 06:18:11;;;;;;;3.10;2.45;;;;;;;12.93;100.00;98514.78;1222575;75;2922373;-74
2023/09/26 06:20:44;;;;;;;4.20;2.90;;;;;;;12.92;100.00;98513.28;1221362;75;3045507;-75
2023/09/26 06:23:17;;;;;;;4.35;3.05;;;;;;;12.88;100.00;98512.69;1221568;75;3001126;-71
2023/09/26 06:25:59;;;;;;;4.75;3.40;;;;;;;12.67;100.00;98509.03;1209655;75;4012479;-73
2023/09/26 06:28:32;;;;;;;4.00;3.20;;;;;;;12.96;100.00;98518.59;1223465;75;2930679;-74
2023/09/26 06:31:08;;;;;;;6.95;3.10;;;;;;;12.82;100.00;98513.81;1224206;75;2917687;-73
2023/09/26 06:33:43;;;;;;;4.65;2.90;;;;;;;13.06;100.00;98511.81;1221295;75;3038809;-75
2023/09/26 06:36:19;;;;;;;5.40;2.90;;;;;;;13.16;100.00;98509.72;1223346;75;2935266;-74
2023/09/26 06:38:51;;;;;;;3.95;3.20;;;;;;;13.20;100.00;98515.78;1223627;75;2943701;-77
2023/09/26 06:41:24;;;;;;;4.10;3.00;;;;;;;13.28;100.00;98510.72;1223389;75;2921521;-74
2023/09/26 06:43:56;;;;;;;4.70;3.15;;;;;;;13.61;100.00;98510.50;1222164;75;2921402;-76
2023/09/26 06:46:29;;;;;;;7.10;3.80;;;;;;;13.34;100.00;98525.31;1222496;75;2964140;-75
2023/09/26 06:49:06;;;;;;;7.15;4.05;;;;;;;13.20;100.00;98521.28;1222382;75;2941416;-74
2023/09/26 06:51:39;;;;;;;4.90;3.65;;;;;;;13.72;100.00;98527.22;1221893;75;2949435;-76
2023/09/26 06:54:13;;;;;;;5.65;4.55;;;;;;;13.65;100.00;98516.59;1223799;75;2925368;-77
2023/09/26 06:56:47;;;;;;;5.10;3.55;;;;;;;14.11;100.00;98509.78;1221725;75;2939203;-76
2023/09/26 06:59:24;;;;;;;7.20;3.90;;;;;;;14.48;100.00;98510.78;1212503;75;3588626;-73
2023/09/26 07:01:58;;;;;;;4.80;3.10;;;;;;;15.10;100.00;98510.75;1222858;75;2942252;-73
2023/09/26 07:04:33;;;;;;;8.30;4.05;;;;;;;14.79;100.00;98501.19;1223594;75;2918497;-75
2023/09/26 07:07:08;;;;;;;6.40;4.90;;;;;;;15.05;100.00;98509.47;1224004;75;2928958;-78
2023/09/26 07:09:41;;;;;;;4.35;3.55;;;;;;;15.86;100.00;98504.94;1220831;75;3078597;-76
2023/09/26 07:12:14;;;;;;;5.15;3.55;;;;;;;16.11;100.00;98503.34;1222266;75;2939354;-79
2023/09/26 07:14:47;;;;;;;5.75;4.20;;;;;;;15.90;100.00;98507.50;1224027;75;2915750;-78
2023/09/26 07:17:20;;;;;;;5.10;3.85;;;;;;;16.28;100.00;98513.75;1223624;75;2925263;-74
2023/09/26 07:19:55;;;;;;;5.15;4.00;;;;;;;16.32;100.00;98506.75;1224756;75;2919742;-80
2023/09/26 07:22:28;;;;;;;9.50;4.65;;;;;;;15.99;100.00;98512.81;1222725;75;2928242;-74
2023/09/26 07:25:01;;;;;;;6.25;4.40;;;;;;;16.29;100.00;98498.69;1222191;75;2943979;-76
2023/09/26 07:27:33;;;;;;;5.30;4.45;;;;;;;16.40;100.00;98498.75;1223115;75;2925136;-79
2023/09/26 07:30:08;;;;;;;5.75;4.95;;;;;;;16.60;100.00;98503.38;1224254;75;2921570;-79
2023/09/26 07:32:41;;;;;;;13.00;6.15;;;;;;;16.17;100.00;98498.63;1220766;75;3061139;-75
2023/09/26 07:35:16;;;;;;;11.20;5.00;;;;;;;16.38;100.00;98493.72;1221201;75;2933630;-73
2023/09/26 07:37:49;;;;;;;8.10;4.70;;;;;;;16.73;100.00;98495.38;1224015;75;2925595;-72
2023/09/26 07:40:22;;;;;;;13.30;4.60;;;;;;;16.70;100.00;98501.16;1223539;75;2935110;-74
2023/09/26 07:42:54;;;;;;;6.45;4.60;;;;;;;17.01;100.00;98501.03;1224449;75;2929300;-77
2023/09/26 07:45:27;;;;;;;7.90;4.85;;;;;;;16.96;100.00;98499.00;1223557;75;2926397;-75
2023/09/26 07:48:00;;;;;;;8.15;4.55;;;;;;;17.26;100.00;98495.78;1223674;75;2923421;-75
2023/09/26 07:50:35;;;;;;;6.60;4.70;;;;;;;17.42;100.00;98500.59;1211432;75;3838643;-73
2023/09/26 07:53:10;;;;;;;5.65;4.30;;;;;;;17.85;100.00;98500.38;1220395;75;3019474;-77
2023/09/26 07:55:43;;;;;;;6.70;4.95;;;;;;;17.51;100.00;98504.38;1224133;75;2923371;-77
2023/09/26 07:58:15;;;;;;;6.40;3.90;;;;;;;17.75;100.00;98503.88;1224551;75;2924574;-76
2023/09/26 08:00:48;;;;;;;6.45;4.10;;;;;;;17.91;100.00;98496.84;1224356;75;2921713;-74
2023/09/26 08:03:21;;;;;;;6.80;3.90;;;;;;;18.26;100.00;98505.34;1225045;75;2921675;-76
2023/09/26 08:06:02;;;;;;;4.00;3.20;;;;;;;18.95;100.00;98501.06;1223368;75;2938662;-72
2023/09/26 08:08:36;;;;;;;6.00;4.00;;;;;;;18.83;100.00;98497.63;1223549;75;2928481;-77
2023/09/26 08:11:10;;;;;;;3.90;3.45;;;;;;;19.21;100.00;98495.13;1223494;75;2926905;-74
2023/09/26 08:13:43;;;;;;;5.70;3.55;;;;;;;20.27;97.67;98501.06;1221132;75;3095857;-77
2023/09/26 08:16:16;;;;;;;7.95;3.70;;;;;;;19.91;98.10;98492.81;1221174;75;3037754;-75
2023/09/26 08:18:49;;;;;;;4.60;3.25;;;;;;;22.37;77.62;98494.75;1221797;75;2932097;-77
2023/09/26 08:21:25;;;;;;;3.60;2.80;;;;;;;26.63;60.29;98496.78;1223579;75;2921341;-76
2023/09/26 08:23:58;;;;;;;5.00;2.45;;;;;;;29.41;53.51;98493.06;1220691;75;2971196;-76
2023/09/26 08:26:31;;;;;;;3.70;2.45;;;;;;;28.77;51.17;98499.34;1197633;75;5014448;-75
2023/09/26 08:29:04;;;;;;;3.70;2.25;;;;;;;31.82;46.53;98490.09;1224152;75;2923390;-78
2023/09/26 08:31:38;;;;;;;2.95;2.25;;;;;;;32.86;43.30;98484.91;1220054;75;3093528;-77
2023/09/26 08:34:11;;;;;;;2.75;1.95;;;;;;;32.12;43.66;98482.19;1222605;75;2919794;-78
2023/09/26 08:36:46;;;;;;;3.90;2.40;;;;;;;30.45;44.74;98467.06;1224298;83;2920875;-77
2023/09/26 08:39:19;;;;;;;4.00;2.45;;;;;;;28.50;49.22;98471.09;1224420;75;2919470;-75
2023/09/26 08:41:52;;;;;;;4.05;3.15;;;;;;;29.13;47.85;98457.75;1209884;75;4013483;-75
2023/09/26 08:44:25;;;;;;;3.80;2.20;;;;;;;28.55;49.57;98461.69;1221446;75;2948076;-75
2023/09/26 08:46:57;;;;;;;5.05;2.85;;;;;;;27.74;52.02;98464.13;1208705;75;4074135;-78
2023/09/26 08:49:30;;;;;;;2.00;1.80;;;;;;;29.19;48.18;98453.31;1220520;75;3081207;-76
2023/09/26 08:52:06;;;;;;;2.70;2.00;;;;;;;29.35;47.36;98455.94;1222726;75;2919562;-75
2023/09/26 08:54:39;;;;;;;5.25;1.90;;;;;;;30.04;46.59;98446.34;1220947;75;2997958;-79
2023/09/26 08:57:11;;;;;;;3.00;2.00;;;;;;;29.05;47.74;98440.91;1223906;75;2922064;-79
2023/09/26 08:59:46;;;;;;;2.15;1.75;;;;;;;29.03;48.19;98440.75;1220632;75;3023931;-79
2023/09/26 09:02:19;;;;;;;3.10;2.10;;;;;;;27.77;50.00;98438.38;1203375;75;3931277;-74
2023/09/26 09:04:52;;;;;;;5.75;3.65;;;;;;;27.66;49.46;98436.06;1223808;75;2929459;-75
2023/09/26 09:07:27;;;;;;;4.60;2.35;;;;;;;28.96;47.81;98424.69;1221332;75;3048081;-76
2023/09/26 09:10:10;;;;;;;2.70;1.80;;;;;;;28.82;47.75;98432.78;1222754;75;2933218;-76
2023/09/26 09:12:44;;;;;;;4.15;2.30;;;;;;;27.51;50.44;98433.34;1221144;75;2928305;-79
2023/09/26 09:15:26;;;;;;;2.95;2.00;;;;;;;29.49;47.25;98423.19;1224074;75;2929169;-78
2023/09/26 09:17:59;;;;;;;2.60;1.60;;;;;;;29.63;47.08;98421.41;1224093;75;2936200;-79
2023/09/26 09:20:34;;;;;;;1.70;1.40;;;;;;;29.80;46.59;98420.63;1211920;75;3786130;-73
2023/09/26 09:23:10;;;;;;;2.55;1.40;;;;;;;29.38;46.85;98410.38;1222531;75;2923011;-74
2023/09/26 09:25:45;;;;;;;2.90;2.10;;;;;;;27.66;48.49;98416.38;1224344;75;2859274;-77
2023/09/26 09:28:23;;;;;;;3.15;1.80;;;;;;;29.37;47.42;98414.53;1224568;75;2921103;-78
2023/09/26 09:30:57;;;;;;;3.40;1.60;;;;;;;29.36;47.86;98415.09;1223456;75;2921011;-78
2023/09/26 09:33:30;;;;;;;3.30;1.50;;;;;;;30.06;46.84;98412.59;1217633;75;3088806;-75
2023/09/26 09:36:03;;;;;;;2.05;1.55;;;;;;;31.03;45.68;98418.19;1223936;75;2922765;-75
2023/09/26 09:38:38;;;;;;;1.50;1.40;;;;;;;30.90;44.02;98407.34;1224028;75;2924131;-80
2023/09/26 09:41:11;;;;;;;3.25;1.70;;;;;;;31.25;45.42;98404.84;1223820;75;2923059;-72
2023/09/26 09:43:44;;;;;;;3.30;1.90;;;;;;;29.25;45.82;98405.13;1223906;67;2936229;-80
2023/09/26 09:46:20;;;;;;;3.00;2.00;;;;;;;28.02;47.96;98398.97;1220137;75;3101750;-80
2023/09/26 09:49:01;;;;;;;6.00;2.10;;;;;;;29.06;47.70;98398.06;1223508;75;2924072;-73
2023/09/26 09:51:35;;;;;;;2.05;1.40;;;;;;;30.10;46.10;98396.69;1223563;83;2924724;-76
2023/09/26 09:54:14;;;;;;;4.95;2.20;;;;;;;28.19;47.60;98389.78;1220262;75;3052126;-75
2023/09/26 09:56:50;;;;;;;4.10;2.10;;;;;;;29.07;47.86;98387.53;1223897;75;2922860;-78
2023/09/26 09:59:24;;;;;;;3.40;2.20;;;;;;;27.46;49.75;98394.97;1220321;75;3035056;-76
2023/09/26 10:01:59;;;;;;;5.65;2.20;;;;;;;28.28;48.80;98391.16;1222806;75;2925054;-74
2023/09/26 10:04:34;;;;;;;3.20;2.00;;;;;;;28.52;48.22;98389.56;1223201;75;2929446;-76
2023/09/26 10:07:08;;;;;;;7.50;2.10;;;;;;;28.31;47.80;98387.19;1221318;75;2920147;-79
2023/09/26 10:09:45;;;;;;;2.85;2.10;;;;;;;29.10;47.15;98389.16;1219803;75;3109351;-74
2023/09/26 10:12:18;;;;;;;2.65;1.95;;;;;;;29.72;46.21;98372.75;1224018;75;2922261;-79
2023/09/26 10:14:52;;;;;;;5.95;2.40;;;;;;;29.61;45.60;98372.53;1221571;75;2991538;-78
2023/09/26 10:17:24;;;;;;;3.75;1.80;;;;;;;29.70;46.16;98375.41;1224037;75;2931883;-79
2023/09/26 10:19:58;;;;;;;1.90;1.60;;;;;;;30.91;44.28;98370.00;1223560;75;2923236;-80
2023/09/26 10:22:37;;;;;;;6.30;2.30;;;;;;;30.90;44.57;98370.59;1220687;75;2960698;-72
2023/09/26 10:25:19;;;;;;;1.55;1.30;;;;;;;31.97;42.94;98364.41;1220099;75;3101043;-80
2023/09/26 10:27:51;;;;;;;3.90;1.80;;;;;;;31.41;41.00;98360.72;1223162;75;2929560;-73
2023/09/26 10:30:24;;;;;;;2.15;1.45;;;;;;;32.85;40.92;98350.84;1224104;75;2933873;-77
2023/09/26 10:32:57;;;;;;;2.20;1.75;;;;;;;31.35;42.29;98360.28;1220584;75;3034506;-79
2023/09/26 10:35:31;;;;;;;3.80;2.25;;;;;;;30.82;42.33;98362.28;1221501;75;2985580;-79
2023/09/26 10:38:18;;;;;;;1.80;1.20;;;;;;;32.99;40.57;98350.25;1224086;75;2922141;-76
2023/09/26 10:40:53;;;;;;;2.40;1.50;;;;;;;31.75;40.34;98360.78;1224487;75;2927389;-80
2023/09/26 10:43:27;;;;;;;1.95;1.40;;;;;;;32.09;41.35;98351.03;1224662;75;2921076;-80
2023/09/26 10:46:00;;;;;;;2.50;1.50;;;;;;;30.95;43.56;98358.22;1222134;75;3005897;-81
2023/09/26 10:48:33;;;;;;;2.30;1.55;;;;;;;31.91;41.54;98350.53;1224346;75;2927794;-78
2023/09/26 10:51:06;;;;;;;2.45;1.30;;;;;;;32.18;41.18;98338.88;1225167;75;2915774;-76
2023/09/26 10:53:39;;;;;;;3.60;1.80;;;;;;;31.11;43.54;98336.00;1224687;75;2925943;-78
2023/09/26 10:56:15;;;;;;;1.70;1.30;;;;;;;32.50;40.85;98328.13;1224538;75;2923683;-76
2023/09/26 10:58:48;;;;;;;2.40;1.70;;;;;;;33.11;39.93;98336.84;1224983;75;2923993;-79
2023/09/26 11:01:21;;;;;;;4.30;2.10;;;;;;;31.73;41.23;98338.75;1221365;75;3070048;-76
2023/09/26 11:03:53;;;;;;;2.90;1.80;;;;;;;31.76;42.29;98329.06;1223759;75;2930304;-78
2023/09/26 11:06:27;;;;;;;4.10;2.00;;;;;;;30.52;44.42;98330.53;1221149;75;3078355;-78
2023/09/26 11:09:01;;;;;;;4.45;2.15;;;;;;;31.28;42.11;98332.91;1221722;75;2923457;-80
2023/09/26 11:11:36;;;;;;;5.30;1.70;;;;;;;30.99;43.30;98333.81;1222648;75;2927057;-77
2023/09/26 11:14:09;;;;;;;4.60;2.40;;;;;;;30.31;44.21;98334.00;1224420;75;2921694;-80
2023/09/26 11:16:44;;;;;;;6.25;1.75;;;;;;;31.55;42.47;98323.41;1223604;75;2947128;-74
2023/09/26 11:19:16;;;;;;;4.60;2.20;;;;;;;30.71;42.91;98332.53;1222484;75;2938655;-76
2023/09/26 11:21:52;;;;;;;4.30;2.00;;;;;;;30.96;43.29;98315.22;1220777;75;3018637;-81
2023/09/26 11:24:27;;;;;;;3.50;1.90;;;;;;;30.95;43.82;98313.00;1224263;75;2930742;-80
2023/09/26 11:27:05;;;;;;;3.60;1.90;;;;;;;29.69;45.66;98323.13;1224619;75;2916012;-80
2023/09/26 11:29:39;;;;;;;;;;;;;;;31.29;43.08;98314.59;1223762;75;2920834;-78
2023/09/26 11:32:11;;;;;;;3.20;1.70;;;;;;;31.65;44.92;98312.00;1223002;75;2976543;-78
2023/09/26 11:34:44;;;;;;;3.70;1.90;;;;;;;31.57;44.09;98312.22;1224360;75;2927352;-75
2023/09/26 11:37:18;;;;;;;4.70;2.50;;;;;;;30.69;44.81;98314.69;1224533;83;2917792;-76
2023/09/26 11:39:55;;;;;;;3.50;1.85;;;;;;;30.28;45.53;98312.59;1223079;75;2919674;-76
2023/09/26 11:42:30;;;;;;;2.55;1.85;;;;;;;31.84;43.76;98306.19;1223460;75;2930160;-77